sensor_id;sensor_type;location;lat;lon;timestamp;P1;durP1;ratioP1;P2;durP2;ratioP2
7045;SDS011;3564;53.326;10.356;2022-08-25T00:01:23;5.93;;;4.17;;
7045;SDS011;3564;53.326;10.356;2022-08-25T00:03:52;6.70;;;4.10;;
7045;SDS011;3564;53.326;10.356;2022-08-25T00:06:19;5.90;;;3.97;;
7045;SDS011;3564;53.326;10.356;2022-08-25T00:08:45;5.70;;;3.97;;
7045;SDS011;3564;53.326;10.356;2022-08-25T00:11:21;5.67;;;3.97;;
7045;SDS011;3564;53.326;10.356;2022-08-25T00:13:58;6.70;;;4.40;;
7045;SDS011;3564;53.326;10.356;2022-08-25T00:16:28;7.50;;;4.43;;
7045;SDS011;3564;53.326;10.356;2022-08-25T00:18:57;4.50;;;3.87;;
7045;SDS011;3564;53.326;10.356;2022-08-25T00:21:27;7.30;;;4.07;;
7045;SDS011;3564;53.326;10.356;2022-08-25T00:23:55;4.37;;;3.97;;
7045;SDS011;3564;53.326;10.356;2022-08-25T00:26:21;5.30;;;4.00;;
7045;SDS011;3564;53.326;10.356;2022-08-25T00:28:47;6.37;;;4.10;;
7045;SDS011;3564;53.326;10.356;2022-08-25T00:31:15;6.63;;;4.50;;
7045;SDS011;3564;53.326;10.356;2022-08-25T00:33:43;4.47;;;4.03;;
7045;SDS011;3564;53.326;10.356;2022-08-25T00:36:10;6.53;;;4.00;;
7045;SDS011;3564;53.326;10.356;2022-08-25T00:38:40;7.63;;;4.50;;
7045;SDS011;3564;53.326;10.356;2022-08-25T00:41:08;6.47;;;4.30;;
7045;SDS011;3564;53.326;10.356;2022-08-25T00:43:42;4.80;;;3.83;;
7045;SDS011;3564;53.326;10.356;2022-08-25T00:46:10;7.43;;;3.83;;
7045;SDS011;3564;53.326;10.356;2022-08-25T00:48:37;5.30;;;4.00;;
7045;SDS011;3564;53.326;10.356;2022-08-25T00:51:06;8.13;;;4.37;;
7045;SDS011;3564;53.326;10.356;2022-08-25T00:53:35;5.57;;;4.13;;
7045;SDS011;3564;53.326;10.356;2022-08-25T00:56:02;6.60;;;4.07;;
7045;SDS011;3564;53.326;10.356;2022-08-25T00:58:28;4.60;;;3.90;;
7045;SDS011;3564;53.326;10.356;2022-08-25T01:00:56;5.17;;;4.07;;
7045;SDS011;3564;53.326;10.356;2022-08-25T01:03:24;6.67;;;3.80;;
7045;SDS011;3564;53.326;10.356;2022-08-25T01:05:52;5.30;;;3.90;;
7045;SDS011;3564;53.326;10.356;2022-08-25T01:08:21;5.10;;;4.17;;
7045;SDS011;3564;53.326;10.356;2022-08-25T01:10:52;5.87;;;4.37;;
7045;SDS011;3564;53.326;10.356;2022-08-25T01:13:23;7.30;;;4.30;;
7045;SDS011;3564;53.326;10.356;2022-08-25T01:15:54;5.37;;;3.90;;
7045;SDS011;3564;53.326;10.356;2022-08-25T01:18:21;7.17;;;4.37;;
7045;SDS011;3564;53.326;10.356;2022-08-25T01:20:48;6.53;;;4.33;;
7045;SDS011;3564;53.326;10.356;2022-08-25T01:23:21;7.33;;;4.50;;
7045;SDS011;3564;53.326;10.356;2022-08-25T01:26:03;6.90;;;4.23;;
7045;SDS011;3564;53.326;10.356;2022-08-25T01:28:35;6.33;;;4.53;;
7045;SDS011;3564;53.326;10.356;2022-08-25T01:31:01;6.73;;;4.40;;
7045;SDS011;3564;53.326;10.356;2022-08-25T01:33:27;6.50;;;4.60;;
7045;SDS011;3564;53.326;10.356;2022-08-25T01:35:52;7.80;;;4.73;;
7045;SDS011;3564;53.326;10.356;2022-08-25T01:38:18;5.97;;;4.33;;
7045;SDS011;3564;53.326;10.356;2022-08-25T01:40:45;6.47;;;4.67;;
7045;SDS011;3564;53.326;10.356;2022-08-25T01:45:45;6.60;;;4.63;;
7045;SDS011;3564;53.326;10.356;2022-08-25T01:48:12;8.07;;;4.93;;
7045;SDS011;3564;53.326;10.356;2022-08-25T01:50:39;6.57;;;4.80;;
7045;SDS011;3564;53.326;10.356;2022-08-25T01:55:51;7.47;;;4.63;;
7045;SDS011;3564;53.326;10.356;2022-08-25T01:58:34;7.53;;;4.60;;
7045;SDS011;3564;53.326;10.356;2022-08-25T02:01:01;7.40;;;4.47;;
7045;SDS011;3564;53.326;10.356;2022-08-25T02:03:30;6.37;;;4.23;;
7045;SDS011;3564;53.326;10.356;2022-08-25T02:05:57;6.30;;;4.40;;
7045;SDS011;3564;53.326;10.356;2022-08-25T02:08:23;5.30;;;4.17;;
7045;SDS011;3564;53.326;10.356;2022-08-25T02:10:50;5.60;;;4.97;;
7045;SDS011;3564;53.326;10.356;2022-08-25T02:13:16;8.47;;;4.73;;
7045;SDS011;3564;53.326;10.356;2022-08-25T02:15:52;4.90;;;4.20;;
7045;SDS011;3564;53.326;10.356;2022-08-25T02:18:20;5.50;;;4.27;;
7045;SDS011;3564;53.326;10.356;2022-08-25T02:20:46;5.57;;;4.77;;
7045;SDS011;3564;53.326;10.356;2022-08-25T02:23:12;5.40;;;4.63;;
7045;SDS011;3564;53.326;10.356;2022-08-25T02:25:40;5.73;;;4.70;;
7045;SDS011;3564;53.326;10.356;2022-08-25T02:28:07;6.23;;;4.33;;
7045;SDS011;3564;53.326;10.356;2022-08-25T02:30:34;5.67;;;5.07;;
7045;SDS011;3564;53.326;10.356;2022-08-25T02:33:00;9.30;;;4.60;;
7045;SDS011;3564;53.326;10.356;2022-08-25T02:35:26;10.17;;;5.23;;
7045;SDS011;3564;53.326;10.356;2022-08-25T02:37:52;6.73;;;4.80;;
7045;SDS011;3564;53.326;10.356;2022-08-25T02:40:18;5.80;;;4.57;;
7045;SDS011;3564;53.326;10.356;2022-08-25T02:42:45;5.50;;;4.53;;
7045;SDS011;3564;53.326;10.356;2022-08-25T02:45:14;7.43;;;5.20;;
7045;SDS011;3564;53.326;10.356;2022-08-25T02:47:40;4.87;;;4.30;;
7045;SDS011;3564;53.326;10.356;2022-08-25T02:50:06;6.33;;;4.20;;
7045;SDS011;3564;53.326;10.356;2022-08-25T02:52:33;7.07;;;4.33;;
7045;SDS011;3564;53.326;10.356;2022-08-25T02:54:59;6.13;;;4.77;;
7045;SDS011;3564;53.326;10.356;2022-08-25T02:57:28;7.10;;;4.80;;
7045;SDS011;3564;53.326;10.356;2022-08-25T02:59:54;5.93;;;4.53;;
7045;SDS011;3564;53.326;10.356;2022-08-25T03:02:20;5.90;;;5.10;;
7045;SDS011;3564;53.326;10.356;2022-08-25T03:04:45;7.17;;;4.97;;
7045;SDS011;3564;53.326;10.356;2022-08-25T03:07:11;6.43;;;5.23;;
7045;SDS011;3564;53.326;10.356;2022-08-25T03:09:37;9.10;;;5.67;;
7045;SDS011;3564;53.326;10.356;2022-08-25T03:12:03;8.40;;;5.87;;
7045;SDS011;3564;53.326;10.356;2022-08-25T03:14:31;6.43;;;5.30;;
7045;SDS011;3564;53.326;10.356;2022-08-25T03:16:57;6.83;;;5.23;;
7045;SDS011;3564;53.326;10.356;2022-08-25T03:19:22;6.00;;;5.10;;
7045;SDS011;3564;53.326;10.356;2022-08-25T03:21:49;10.67;;;5.40;;
7045;SDS011;3564;53.326;10.356;2022-08-25T03:24:16;5.97;;;5.37;;
7045;SDS011;3564;53.326;10.356;2022-08-25T03:26:42;7.23;;;5.53;;
7045;SDS011;3564;53.326;10.356;2022-08-25T03:29:23;6.07;;;5.50;;
7045;SDS011;3564;53.326;10.356;2022-08-25T03:31:52;6.07;;;5.07;;
7045;SDS011;3564;53.326;10.356;2022-08-25T03:34:23;6.07;;;5.47;;
7045;SDS011;3564;53.326;10.356;2022-08-25T03:36:52;8.40;;;5.20;;
7045;SDS011;3564;53.326;10.356;2022-08-25T03:39:19;7.07;;;5.33;;
7045;SDS011;3564;53.326;10.356;2022-08-25T03:41:46;6.90;;;5.43;;
7045;SDS011;3564;53.326;10.356;2022-08-25T03:44:12;7.47;;;5.00;;
7045;SDS011;3564;53.326;10.356;2022-08-25T03:46:41;6.33;;;4.73;;
7045;SDS011;3564;53.326;10.356;2022-08-25T03:49:10;6.90;;;5.30;;
7045;SDS011;3564;53.326;10.356;2022-08-25T03:51:42;5.73;;;5.00;;
7045;SDS011;3564;53.326;10.356;2022-08-25T03:54:11;6.43;;;5.47;;
7045;SDS011;3564;53.326;10.356;2022-08-25T03:56:37;6.60;;;5.67;;
7045;SDS011;3564;53.326;10.356;2022-08-25T03:59:03;9.90;;;6.13;;
7045;SDS011;3564;53.326;10.356;2022-08-25T04:01:30;6.70;;;5.50;;
7045;SDS011;3564;53.326;10.356;2022-08-25T04:03:55;8.33;;;6.20;;
7045;SDS011;3564;53.326;10.356;2022-08-25T04:06:21;6.93;;;5.87;;
7045;SDS011;3564;53.326;10.356;2022-08-25T04:08:47;11.47;;;6.07;;
7045;SDS011;3564;53.326;10.356;2022-08-25T04:11:17;7.47;;;5.63;;
7045;SDS011;3564;53.326;10.356;2022-08-25T04:13:44;7.37;;;5.80;;
7045;SDS011;3564;53.326;10.356;2022-08-25T04:16:16;7.90;;;6.10;;
7045;SDS011;3564;53.326;10.356;2022-08-25T04:19:05;9.50;;;6.33;;
7045;SDS011;3564;53.326;10.356;2022-08-25T04:21:33;8.00;;;5.77;;
7045;SDS011;3564;53.326;10.356;2022-08-25T04:24:00;10.97;;;6.33;;
7045;SDS011;3564;53.326;10.356;2022-08-25T04:26:27;6.90;;;6.17;;
7045;SDS011;3564;53.326;10.356;2022-08-25T04:28:53;7.10;;;5.70;;
7045;SDS011;3564;53.326;10.356;2022-08-25T04:31:21;7.60;;;6.00;;
7045;SDS011;3564;53.326;10.356;2022-08-25T04:33:47;6.07;;;5.30;;
7045;SDS011;3564;53.326;10.356;2022-08-25T04:36:13;7.47;;;5.80;;
7045;SDS011;3564;53.326;10.356;2022-08-25T04:38:41;10.43;;;6.10;;
7045;SDS011;3564;53.326;10.356;2022-08-25T04:41:08;8.07;;;5.50;;
7045;SDS011;3564;53.326;10.356;2022-08-25T04:43:35;9.07;;;6.67;;
7045;SDS011;3564;53.326;10.356;2022-08-25T04:46:05;6.93;;;5.57;;
7045;SDS011;3564;53.326;10.356;2022-08-25T04:48:39;7.30;;;6.07;;
7045;SDS011;3564;53.326;10.356;2022-08-25T04:51:05;6.47;;;5.67;;
7045;SDS011;3564;53.326;10.356;2022-08-25T04:53:32;7.93;;;6.27;;
7045;SDS011;3564;53.326;10.356;2022-08-25T04:55:58;8.00;;;6.53;;
7045;SDS011;3564;53.326;10.356;2022-08-25T04:58:24;8.77;;;6.57;;
7045;SDS011;3564;53.326;10.356;2022-08-25T05:00:50;8.80;;;7.07;;
7045;SDS011;3564;53.326;10.356;2022-08-25T05:03:16;11.17;;;7.37;;
7045;SDS011;3564;53.326;10.356;2022-08-25T05:05:42;11.50;;;8.23;;
7045;SDS011;3564;53.326;10.356;2022-08-25T05:08:07;11.77;;;7.53;;
7045;SDS011;3564;53.326;10.356;2022-08-25T05:10:37;12.73;;;8.47;;
7045;SDS011;3564;53.326;10.356;2022-08-25T05:13:04;10.10;;;8.13;;
7045;SDS011;3564;53.326;10.356;2022-08-25T05:15:30;11.27;;;7.87;;
7045;SDS011;3564;53.326;10.356;2022-08-25T05:18:14;12.50;;;8.33;;
7045;SDS011;3564;53.326;10.356;2022-08-25T05:20:41;9.70;;;7.90;;
7045;SDS011;3564;53.326;10.356;2022-08-25T05:23:06;8.93;;;8.03;;
7045;SDS011;3564;53.326;10.356;2022-08-25T05:25:32;9.60;;;8.27;;
7045;SDS011;3564;53.326;10.356;2022-08-25T05:27:58;9.97;;;8.93;;
7045;SDS011;3564;53.326;10.356;2022-08-25T05:30:23;12.20;;;9.80;;
7045;SDS011;3564;53.326;10.356;2022-08-25T05:32:49;10.60;;;9.17;;
7045;SDS011;3564;53.326;10.356;2022-08-25T05:35:14;11.97;;;9.67;;
7045;SDS011;3564;53.326;10.356;2022-08-25T05:37:40;11.23;;;9.17;;
7045;SDS011;3564;53.326;10.356;2022-08-25T05:40:07;12.03;;;9.00;;
7045;SDS011;3564;53.326;10.356;2022-08-25T05:42:33;10.83;;;9.23;;
7045;SDS011;3564;53.326;10.356;2022-08-25T05:45:00;10.67;;;9.53;;
7045;SDS011;3564;53.326;10.356;2022-08-25T05:47:26;9.83;;;8.80;;
7045;SDS011;3564;53.326;10.356;2022-08-25T05:49:51;11.00;;;9.80;;
7045;SDS011;3564;53.326;10.356;2022-08-25T05:52:17;15.17;;;9.93;;
7045;SDS011;3564;53.326;10.356;2022-08-25T05:54:42;11.87;;;9.83;;
7045;SDS011;3564;53.326;10.356;2022-08-25T05:57:08;10.37;;;9.37;;
7045;SDS011;3564;53.326;10.356;2022-08-25T05:59:34;11.40;;;9.67;;
7045;SDS011;3564;53.326;10.356;2022-08-25T06:01:59;11.77;;;9.57;;
7045;SDS011;3564;53.326;10.356;2022-08-25T06:04:43;11.63;;;10.27;;
7045;SDS011;3564;53.326;10.356;2022-08-25T06:07:10;14.07;;;11.10;;
7045;SDS011;3564;53.326;10.356;2022-08-25T06:09:37;13.03;;;10.17;;
7045;SDS011;3564;53.326;10.356;2022-08-25T06:12:04;11.73;;;10.37;;
7045;SDS011;3564;53.326;10.356;2022-08-25T06:14:30;11.30;;;10.20;;
7045;SDS011;3564;53.326;10.356;2022-08-25T06:16:56;11.40;;;10.17;;
7045;SDS011;3564;53.326;10.356;2022-08-25T06:19:21;11.47;;;10.27;;
7045;SDS011;3564;53.326;10.356;2022-08-25T06:21:47;10.90;;;9.80;;
7045;SDS011;3564;53.326;10.356;2022-08-25T06:24:13;11.97;;;10.63;;
7045;SDS011;3564;53.326;10.356;2022-08-25T06:26:38;12.67;;;10.70;;
7045;SDS011;3564;53.326;10.356;2022-08-25T06:29:04;14.47;;;12.03;;
7045;SDS011;3564;53.326;10.356;2022-08-25T06:31:30;12.27;;;9.83;;
7045;SDS011;3564;53.326;10.356;2022-08-25T06:33:56;12.77;;;11.00;;
7045;SDS011;3564;53.326;10.356;2022-08-25T06:36:22;13.20;;;11.80;;
7045;SDS011;3564;53.326;10.356;2022-08-25T06:38:48;14.17;;;12.20;;
7045;SDS011;3564;53.326;10.356;2022-08-25T06:41:13;15.77;;;12.50;;
7045;SDS011;3564;53.326;10.356;2022-08-25T06:43:40;13.23;;;11.60;;
7045;SDS011;3564;53.326;10.356;2022-08-25T06:46:08;16.53;;;13.20;;
7045;SDS011;3564;53.326;10.356;2022-08-25T06:48:38;14.53;;;12.57;;
7045;SDS011;3564;53.326;10.356;2022-08-25T06:51:05;17.73;;;13.17;;
7045;SDS011;3564;53.326;10.356;2022-08-25T06:53:32;17.77;;;12.37;;
7045;SDS011;3564;53.326;10.356;2022-08-25T06:55:58;14.87;;;13.00;;
7045;SDS011;3564;53.326;10.356;2022-08-25T06:58:23;15.63;;;13.20;;
7045;SDS011;3564;53.326;10.356;2022-08-25T07:00:49;16.93;;;13.53;;
7045;SDS011;3564;53.326;10.356;2022-08-25T07:03:15;18.90;;;14.20;;
7045;SDS011;3564;53.326;10.356;2022-08-25T07:05:40;17.90;;;14.27;;
7045;SDS011;3564;53.326;10.356;2022-08-25T07:08:06;18.47;;;13.60;;
7045;SDS011;3564;53.326;10.356;2022-08-25T07:10:31;17.57;;;13.23;;
7045;SDS011;3564;53.326;10.356;2022-08-25T07:12:57;17.20;;;13.83;;
7045;SDS011;3564;53.326;10.356;2022-08-25T07:15:23;17.37;;;14.10;;
7045;SDS011;3564;53.326;10.356;2022-08-25T07:17:48;17.87;;;14.93;;
7045;SDS011;3564;53.326;10.356;2022-08-25T07:20:15;17.40;;;15.37;;
7045;SDS011;3564;53.326;10.356;2022-08-25T07:22:41;20.57;;;13.87;;
7045;SDS011;3564;53.326;10.356;2022-08-25T07:25:07;17.93;;;14.43;;
7045;SDS011;3564;53.326;10.356;2022-08-25T07:27:35;19.70;;;15.90;;
7045;SDS011;3564;53.326;10.356;2022-08-25T07:30:02;17.00;;;13.73;;
7045;SDS011;3564;53.326;10.356;2022-08-25T07:32:29;19.40;;;14.73;;
7045;SDS011;3564;53.326;10.356;2022-08-25T07:34:55;17.57;;;13.83;;
7045;SDS011;3564;53.326;10.356;2022-08-25T07:37:39;18.80;;;14.40;;
7045;SDS011;3564;53.326;10.356;2022-08-25T07:40:19;18.03;;;14.37;;
7045;SDS011;3564;53.326;10.356;2022-08-25T07:42:57;17.13;;;15.17;;
7045;SDS011;3564;53.326;10.356;2022-08-25T07:45:25;19.97;;;14.50;;
7045;SDS011;3564;53.326;10.356;2022-08-25T07:47:59;17.80;;;13.90;;
7045;SDS011;3564;53.326;10.356;2022-08-25T07:50:26;17.67;;;14.40;;
7045;SDS011;3564;53.326;10.356;2022-08-25T07:52:54;16.87;;;12.83;;
7045;SDS011;3564;53.326;10.356;2022-08-25T07:55:21;16.53;;;12.93;;
7045;SDS011;3564;53.326;10.356;2022-08-25T07:57:53;16.13;;;13.33;;
7045;SDS011;3564;53.326;10.356;2022-08-25T08:00:25;20.87;;;14.93;;
7045;SDS011;3564;53.326;10.356;2022-08-25T08:02:54;19.27;;;14.97;;
7045;SDS011;3564;53.326;10.356;2022-08-25T08:05:23;19.30;;;13.27;;
7045;SDS011;3564;53.326;10.356;2022-08-25T08:07:51;17.47;;;13.87;;
7045;SDS011;3564;53.326;10.356;2022-08-25T08:10:18;18.13;;;13.40;;
7045;SDS011;3564;53.326;10.356;2022-08-25T08:12:44;19.13;;;13.20;;
7045;SDS011;3564;53.326;10.356;2022-08-25T08:15:10;15.20;;;13.07;;
7045;SDS011;3564;53.326;10.356;2022-08-25T08:17:36;16.47;;;13.97;;
7045;SDS011;3564;53.326;10.356;2022-08-25T08:20:03;19.20;;;14.17;;
7045;SDS011;3564;53.326;10.356;2022-08-25T08:22:33;16.37;;;13.23;;
7045;SDS011;3564;53.326;10.356;2022-08-25T08:25:00;17.47;;;12.27;;
7045;SDS011;3564;53.326;10.356;2022-08-25T08:27:26;17.63;;;12.30;;
7045;SDS011;3564;53.326;10.356;2022-08-25T08:29:52;14.80;;;12.33;;
7045;SDS011;3564;53.326;10.356;2022-08-25T08:32:17;17.83;;;12.07;;
7045;SDS011;3564;53.326;10.356;2022-08-25T08:34:44;13.30;;;11.83;;
7045;SDS011;3564;53.326;10.356;2022-08-25T08:37:12;17.83;;;12.07;;
7045;SDS011;3564;53.326;10.356;2022-08-25T08:39:38;16.47;;;11.87;;
7045;SDS011;3564;53.326;10.356;2022-08-25T08:42:16;14.17;;;11.30;;
7045;SDS011;3564;53.326;10.356;2022-08-25T08:50:44;14.37;;;12.13;;
7045;SDS011;3564;53.326;10.356;2022-08-25T08:56:29;13.83;;;11.07;;
7045;SDS011;3564;53.326;10.356;2022-08-25T08:59:08;13.53;;;10.50;;
7045;SDS011;3564;53.326;10.356;2022-08-25T09:01:47;11.37;;;10.17;;
7045;SDS011;3564;53.326;10.356;2022-08-25T09:06:50;11.57;;;9.67;;
7045;SDS011;3564;53.326;10.356;2022-08-25T09:09:24;13.07;;;10.67;;
7045;SDS011;3564;53.326;10.356;2022-08-25T09:11:58;14.20;;;10.93;;
7045;SDS011;3564;53.326;10.356;2022-08-25T09:14:43;18.97;;;10.83;;
7045;SDS011;3564;53.326;10.356;2022-08-25T09:23:01;11.23;;;9.73;;
7045;SDS011;3564;53.326;10.356;2022-08-25T09:28:20;11.10;;;9.27;;
7045;SDS011;3564;53.326;10.356;2022-08-25T09:31:04;11.83;;;8.87;;
7045;SDS011;3564;53.326;10.356;2022-08-25T09:33:41;11.93;;;8.27;;
7045;SDS011;3564;53.326;10.356;2022-08-25T09:36:06;11.60;;;8.57;;
7045;SDS011;3564;53.326;10.356;2022-08-25T09:38:32;13.57;;;8.60;;
7045;SDS011;3564;53.326;10.356;2022-08-25T09:40:59;9.67;;;7.97;;
7045;SDS011;3564;53.326;10.356;2022-08-25T09:45:59;9.73;;;7.73;;
7045;SDS011;3564;53.326;10.356;2022-08-25T09:53:58;7.97;;;6.93;;
7045;SDS011;3564;53.326;10.356;2022-08-25T09:56:47;10.40;;;7.47;;
7045;SDS011;3564;53.326;10.356;2022-08-25T10:01:52;9.77;;;6.80;;
7045;SDS011;3564;53.326;10.356;2022-08-25T10:04:30;7.33;;;6.50;;
7045;SDS011;3564;53.326;10.356;2022-08-25T10:07:37;9.23;;;6.47;;
7045;SDS011;3564;53.326;10.356;2022-08-25T10:10:02;7.70;;;6.43;;
7045;SDS011;3564;53.326;10.356;2022-08-25T10:12:45;6.90;;;5.80;;
7045;SDS011;3564;53.326;10.356;2022-08-25T10:17:42;9.03;;;6.00;;
7045;SDS011;3564;53.326;10.356;2022-08-25T10:22:36;7.17;;;5.63;;
7045;SDS011;3564;53.326;10.356;2022-08-25T10:25:05;5.60;;;5.05;;
7045;SDS011;3564;53.326;10.356;2022-08-25T10:27:41;8.30;;;6.00;;
7045;SDS011;3564;53.326;10.356;2022-08-25T10:36:20;8.48;;;5.18;;
7045;SDS011;3564;53.326;10.356;2022-08-25T10:38:53;7.43;;;5.70;;
7045;SDS011;3564;53.326;10.356;2022-08-25T10:43:53;6.37;;;5.77;;
7045;SDS011;3564;53.326;10.356;2022-08-25T10:46:41;6.60;;;5.15;;
7045;SDS011;3564;53.326;10.356;2022-08-25T10:55:11;7.35;;;5.43;;
7045;SDS011;3564;53.326;10.356;2022-08-25T10:57:50;7.20;;;5.47;;
7045;SDS011;3564;53.326;10.356;2022-08-25T11:00:31;7.15;;;5.45;;
7045;SDS011;3564;53.326;10.356;2022-08-25T11:03:17;7.22;;;4.65;;
7045;SDS011;3564;53.326;10.356;2022-08-25T11:06:02;6.55;;;5.13;;
7045;SDS011;3564;53.326;10.356;2022-08-25T11:08:37;7.30;;;5.13;;
7045;SDS011;3564;53.326;10.356;2022-08-25T11:16:08;5.18;;;4.30;;
7045;SDS011;3564;53.326;10.356;2022-08-25T11:18:38;7.40;;;4.55;;
7045;SDS011;3564;53.326;10.356;2022-08-25T11:21:30;5.38;;;4.78;;
7045;SDS011;3564;53.326;10.356;2022-08-25T11:27:03;5.38;;;4.57;;
7045;SDS011;3564;53.326;10.356;2022-08-25T11:29:33;5.78;;;4.55;;
7045;SDS011;3564;53.326;10.356;2022-08-25T11:32:01;6.32;;;4.90;;
7045;SDS011;3564;53.326;10.356;2022-08-25T11:34:31;7.20;;;4.47;;
7045;SDS011;3564;53.326;10.356;2022-08-25T11:37:07;5.07;;;4.57;;
7045;SDS011;3564;53.326;10.356;2022-08-25T11:42:59;5.68;;;4.47;;
7045;SDS011;3564;53.326;10.356;2022-08-25T11:51:10;5.45;;;4.68;;
7045;SDS011;3564;53.326;10.356;2022-08-25T11:54:03;6.57;;;4.55;;
7045;SDS011;3564;53.326;10.356;2022-08-25T11:56:36;4.97;;;4.47;;
7045;SDS011;3564;53.326;10.356;2022-08-25T11:59:05;5.40;;;4.82;;
7045;SDS011;3564;53.326;10.356;2022-08-25T12:04:10;5.80;;;4.70;;
7045;SDS011;3564;53.326;10.356;2022-08-25T12:15:00;7.15;;;4.90;;
7045;SDS011;3564;53.326;10.356;2022-08-25T12:18:06;6.57;;;4.82;;
7045;SDS011;3564;53.326;10.356;2022-08-25T12:23:29;6.25;;;4.70;;
7045;SDS011;3564;53.326;10.356;2022-08-25T12:28:41;5.43;;;4.90;;
7045;SDS011;3564;53.326;10.356;2022-08-25T12:37:13;5.88;;;4.28;;
7045;SDS011;3564;53.326;10.356;2022-08-25T12:39:50;5.70;;;4.65;;
7045;SDS011;3564;53.326;10.356;2022-08-25T12:42:23;5.78;;;4.40;;
7045;SDS011;3564;53.326;10.356;2022-08-25T12:50:58;9.23;;;4.50;;
7045;SDS011;3564;53.326;10.356;2022-08-25T12:56:05;5.03;;;4.35;;
7045;SDS011;3564;53.326;10.356;2022-08-25T12:58:53;6.07;;;4.88;;
7045;SDS011;3564;53.326;10.356;2022-08-25T13:07:04;5.60;;;4.20;;
7045;SDS011;3564;53.326;10.356;2022-08-25T13:23:36;5.35;;;4.13;;
7045;SDS011;3564;53.326;10.356;2022-08-25T13:26:04;6.00;;;4.13;;
7045;SDS011;3564;53.326;10.356;2022-08-25T13:28:37;7.07;;;4.60;;
7045;SDS011;3564;53.326;10.356;2022-08-25T13:31:15;5.03;;;4.15;;
7045;SDS011;3564;53.326;10.356;2022-08-25T13:33:50;4.20;;;3.80;;
7045;SDS011;3564;53.326;10.356;2022-08-25T13:36:16;6.32;;;4.25;;
7045;SDS011;3564;53.326;10.356;2022-08-25T13:39:10;4.82;;;4.13;;
7045;SDS011;3564;53.326;10.356;2022-08-25T13:41:38;4.28;;;3.85;;
7045;SDS011;3564;53.326;10.356;2022-08-25T13:44:13;4.38;;;3.83;;
7045;SDS011;3564;53.326;10.356;2022-08-25T13:46:39;5.30;;;3.88;;
7045;SDS011;3564;53.326;10.356;2022-08-25T13:49:07;7.25;;;4.00;;
7045;SDS011;3564;53.326;10.356;2022-08-25T13:51:33;4.35;;;3.97;;
7045;SDS011;3564;53.326;10.356;2022-08-25T13:54:00;5.00;;;3.90;;
7045;SDS011;3564;53.326;10.356;2022-08-25T13:59:03;7.03;;;4.22;;
7045;SDS011;3564;53.326;10.356;2022-08-25T14:01:31;8.52;;;4.32;;
7045;SDS011;3564;53.326;10.356;2022-08-25T14:09:55;4.43;;;3.80;;
7045;SDS011;3564;53.326;10.356;2022-08-25T14:12:35;5.50;;;3.83;;
7045;SDS011;3564;53.326;10.356;2022-08-25T14:15:10;4.78;;;4.00;;
7045;SDS011;3564;53.326;10.356;2022-08-25T14:17:46;6.45;;;3.60;;
7045;SDS011;3564;53.326;10.356;2022-08-25T14:20:25;4.43;;;4.00;;
7045;SDS011;3564;53.326;10.356;2022-08-25T14:22:53;4.65;;;3.97;;
7045;SDS011;3564;53.326;10.356;2022-08-25T14:25:21;5.78;;;3.72;;
7045;SDS011;3564;53.326;10.356;2022-08-25T14:27:55;4.07;;;3.65;;
7045;SDS011;3564;53.326;10.356;2022-08-25T14:30:22;5.13;;;3.95;;
7045;SDS011;3564;53.326;10.356;2022-08-25T14:32:48;4.25;;;3.80;;
7045;SDS011;3564;53.326;10.356;2022-08-25T14:35:13;5.90;;;4.45;;
7045;SDS011;3564;53.326;10.356;2022-08-25T14:37:39;7.28;;;3.95;;
7045;SDS011;3564;53.326;10.356;2022-08-25T14:40:05;5.78;;;3.80;;
7045;SDS011;3564;53.326;10.356;2022-08-25T14:42:32;5.15;;;3.80;;
7045;SDS011;3564;53.326;10.356;2022-08-25T14:44:57;4.97;;;3.83;;
7045;SDS011;3564;53.326;10.356;2022-08-25T14:47:23;5.75;;;3.85;;
7045;SDS011;3564;53.326;10.356;2022-08-25T14:49:48;6.82;;;4.10;;
7045;SDS011;3564;53.326;10.356;2022-08-25T14:52:18;6.20;;;3.90;;
7045;SDS011;3564;53.326;10.356;2022-08-25T14:54:50;5.72;;;4.00;;
7045;SDS011;3564;53.326;10.356;2022-08-25T14:57:16;6.95;;;3.75;;
7045;SDS011;3564;53.326;10.356;2022-08-25T14:59:42;7.53;;;4.00;;
7045;SDS011;3564;53.326;10.356;2022-08-25T15:02:08;6.10;;;4.30;;
7045;SDS011;3564;53.326;10.356;2022-08-25T15:04:36;4.85;;;3.80;;
7045;SDS011;3564;53.326;10.356;2022-08-25T15:07:02;6.47;;;3.67;;
7045;SDS011;3564;53.326;10.356;2022-08-25T15:09:49;6.05;;;3.67;;
7045;SDS011;3564;53.326;10.356;2022-08-25T15:12:15;4.65;;;3.85;;
7045;SDS011;3564;53.326;10.356;2022-08-25T15:14:40;9.50;;;4.47;;
7045;SDS011;3564;53.326;10.356;2022-08-25T15:17:07;8.80;;;4.15;;
7045;SDS011;3564;53.326;10.356;2022-08-25T15:19:32;8.38;;;4.18;;
7045;SDS011;3564;53.326;10.356;2022-08-25T15:21:58;5.68;;;3.88;;
7045;SDS011;3564;53.326;10.356;2022-08-25T15:24:24;6.25;;;3.90;;
7045;SDS011;3564;53.326;10.356;2022-08-25T15:26:54;8.90;;;4.20;;
7045;SDS011;3564;53.326;10.356;2022-08-25T15:29:24;7.15;;;3.65;;
7045;SDS011;3564;53.326;10.356;2022-08-25T15:31:53;7.93;;;4.10;;
7045;SDS011;3564;53.326;10.356;2022-08-25T15:34:20;6.35;;;3.88;;
7045;SDS011;3564;53.326;10.356;2022-08-25T15:36:46;8.40;;;3.50;;
7045;SDS011;3564;53.326;10.356;2022-08-25T15:39:12;6.68;;;3.90;;
7045;SDS011;3564;53.326;10.356;2022-08-25T15:41:38;5.32;;;3.95;;
7045;SDS011;3564;53.326;10.356;2022-08-25T15:44:04;5.10;;;4.18;;
7045;SDS011;3564;53.326;10.356;2022-08-25T15:46:31;5.43;;;3.40;;
7045;SDS011;3564;53.326;10.356;2022-08-25T15:49:00;7.57;;;4.13;;
7045;SDS011;3564;53.326;10.356;2022-08-25T15:51:26;7.60;;;4.28;;
7045;SDS011;3564;53.326;10.356;2022-08-25T15:53:53;8.73;;;4.13;;
7045;SDS011;3564;53.326;10.356;2022-08-25T15:56:20;4.80;;;3.90;;
7045;SDS011;3564;53.326;10.356;2022-08-25T15:58:47;6.25;;;4.05;;
7045;SDS011;3564;53.326;10.356;2022-08-25T16:01:14;5.47;;;3.90;;
7045;SDS011;3564;53.326;10.356;2022-08-25T16:03:43;4.18;;;3.50;;
7045;SDS011;3564;53.326;10.356;2022-08-25T16:06:08;8.93;;;3.70;;
7045;SDS011;3564;53.326;10.356;2022-08-25T16:08:34;8.57;;;4.00;;
7045;SDS011;3564;53.326;10.356;2022-08-25T16:11:03;6.15;;;3.95;;
7045;SDS011;3564;53.326;10.356;2022-08-25T16:13:31;6.60;;;3.38;;
7045;SDS011;3564;53.326;10.356;2022-08-25T16:15:57;5.70;;;3.40;;
7045;SDS011;3564;53.326;10.356;2022-08-25T16:18:24;7.60;;;3.78;;
7045;SDS011;3564;53.326;10.356;2022-08-25T16:20:50;5.70;;;3.78;;
7045;SDS011;3564;53.326;10.356;2022-08-25T16:23:17;5.63;;;3.92;;
7045;SDS011;3564;53.326;10.356;2022-08-25T16:25:44;6.43;;;4.38;;
7045;SDS011;3564;53.326;10.356;2022-08-25T16:28:12;9.30;;;4.25;;
7045;SDS011;3564;53.326;10.356;2022-08-25T16:30:47;4.60;;;3.60;;
7045;SDS011;3564;53.326;10.356;2022-08-25T16:33:14;6.88;;;4.28;;
7045;SDS011;3564;53.326;10.356;2022-08-25T16:35:40;8.00;;;4.05;;
7045;SDS011;3564;53.326;10.356;2022-08-25T16:38:08;7.15;;;5.10;;
7045;SDS011;3564;53.326;10.356;2022-08-25T16:40:39;8.13;;;3.90;;
7045;SDS011;3564;53.326;10.356;2022-08-25T16:43:06;8.07;;;4.63;;
7045;SDS011;3564;53.326;10.356;2022-08-25T16:45:32;8.35;;;4.18;;
7045;SDS011;3564;53.326;10.356;2022-08-25T16:47:58;7.65;;;4.28;;
7045;SDS011;3564;53.326;10.356;2022-08-25T16:50:23;6.78;;;4.25;;
7045;SDS011;3564;53.326;10.356;2022-08-25T16:52:49;6.13;;;4.03;;
7045;SDS011;3564;53.326;10.356;2022-08-25T16:55:33;5.18;;;3.90;;
7045;SDS011;3564;53.326;10.356;2022-08-25T16:57:59;5.47;;;4.45;;
7045;SDS011;3564;53.326;10.356;2022-08-25T17:00:27;7.55;;;4.35;;
7045;SDS011;3564;53.326;10.356;2022-08-25T17:02:54;6.72;;;4.85;;
7045;SDS011;3564;53.326;10.356;2022-08-25T17:05:25;8.05;;;4.53;;
7045;SDS011;3564;53.326;10.356;2022-08-25T17:07:52;7.60;;;4.40;;
7045;SDS011;3564;53.326;10.356;2022-08-25T17:10:36;6.97;;;4.60;;
7045;SDS011;3564;53.326;10.356;2022-08-25T17:13:03;5.80;;;3.92;;
7045;SDS011;3564;53.326;10.356;2022-08-25T17:15:30;10.90;;;4.50;;
7045;SDS011;3564;53.326;10.356;2022-08-25T17:17:56;6.05;;;4.35;;
7045;SDS011;3564;53.326;10.356;2022-08-25T17:20:22;5.93;;;4.22;;